createdAt,value
2022-08-06T00:01:25.191Z,99939.56
2022-08-06T00:03:51.941Z,99943.19
2022-08-06T00:06:18.326Z,99946.56
2022-08-06T00:08:47.343Z,99948.59
2022-08-06T00:11:14.365Z,99951.13
2022-08-06T00:13:42.018Z,99949.69
2022-08-06T00:16:36.415Z,99953.41
2022-08-06T00:18:56.296Z,99954.59
2022-08-06T00:21:41.007Z,99941.41
2022-08-06T00:24:12.694Z,99958.28
2022-08-06T00:27:05.426Z,99959.59
2022-08-06T00:29:44.142Z,99960.56
2022-08-06T00:32:14.313Z,99952.84
2022-08-06T00:34:43.340Z,99962.59
2022-08-06T00:37:18.967Z,99960.34
2022-08-06T00:39:45.893Z,99971.06
2022-08-06T00:42:13.461Z,99977.91
2022-08-06T00:44:43.785Z,99976.91
2022-08-06T00:47:23.230Z,99984.00
2022-08-06T00:50:02.323Z,99974.47
2022-08-06T00:52:29.200Z,99976.63
2022-08-06T00:54:55.635Z,99981.28
2022-08-06T00:57:23.547Z,99982.03
2022-08-06T00:59:53.649Z,99980.88
2022-08-06T01:02:20.258Z,99986.41
2022-08-06T01:04:50.587Z,99985.03
2022-08-06T01:07:17.344Z,99988.53
2022-08-06T01:09:58.053Z,99988.31
2022-08-06T01:12:31.936Z,99987.47
2022-08-06T01:15:02.851Z,99982.94
2022-08-06T01:17:38.777Z,99990.50
2022-08-06T01:21:57.611Z,100004.47
2022-08-06T01:23:44.803Z,99996.84
2022-08-06T01:26:32.782Z,100011.16
2022-08-06T01:29:05.541Z,100017.53
2022-08-06T01:31:52.906Z,100025.81
2022-08-06T01:34:35.513Z,100018.06
2022-08-06T01:37:15.967Z,100013.19
2022-08-06T01:40:01.599Z,100018.81
2022-08-06T01:42:35.005Z,100028.88
2022-08-06T01:45:06.027Z,100029.19
2022-08-06T01:47:53.971Z,100004.28
2022-08-06T01:50:28.161Z,100022.06
2022-08-06T01:52:59.948Z,100035.44
2022-08-06T01:55:56.360Z,100027.78
2022-08-06T01:58:29.407Z,100027.91
2022-08-06T02:01:01.257Z,100037.25
2022-08-06T02:03:50.333Z,100034.88
2022-08-06T02:06:32.718Z,100032.41
2022-08-06T02:09:22.868Z,100041.53
2022-08-06T02:12:17.271Z,100041.22
2022-08-06T02:14:52.526Z,100046.59
2022-08-06T02:17:53.809Z,100052.09
2022-08-06T02:20:11.738Z,100048.91
2022-08-06T02:22:42.279Z,100040.53
2022-08-06T02:25:15.134Z,100050.03
2022-08-06T02:27:53.612Z,100053.34
2022-08-06T02:30:34.915Z,100060.84
2022-08-06T02:33:05.322Z,100054.81
2022-08-06T02:35:37.417Z,100051.72
2022-08-06T02:38:10.719Z,100056.47
2022-08-06T02:40:54.061Z,100059.31
2022-08-06T02:43:28.771Z,100060.28
2022-08-06T02:46:11.257Z,100069.06
2022-08-06T02:48:50.433Z,100073.81
2022-08-06T02:51:43.722Z,100071.25
2022-08-06T02:54:13.088Z,100074.94
2022-08-06T02:56:45.375Z,100075.75
2022-08-06T02:59:16.321Z,100070.94
2022-08-06T03:01:50.892Z,100066.69
2022-08-06T03:04:20.118Z,100067.63
2022-08-06T03:07:03.535Z,100070.56
2022-08-06T03:09:34.181Z,100066.53
2022-08-06T03:12:09.592Z,100070.88
2022-08-06T03:15:06.907Z,100074.56
2022-08-06T03:17:41.575Z,100095.03
2022-08-06T03:20:17.282Z,100086.38
2022-08-06T03:22:47.752Z,100094.00
2022-08-06T03:25:16.787Z,100094.19
2022-08-06T03:27:45.577Z,100096.94
2022-08-06T03:30:30.446Z,100103.25
2022-08-06T03:33:07.390Z,100094.88
2022-08-06T03:35:51.136Z,100090.91
2022-08-06T03:38:19.720Z,100100.59
2022-08-06T03:40:49.614Z,100107.69
2022-08-06T03:43:27.915Z,100104.22
2022-08-06T03:46:01.025Z,100106.94
2022-08-06T03:48:35.783Z,100116.81
2022-08-06T03:51:11.529Z,100122.28
2022-08-06T03:53:42.369Z,100119.84
2022-08-06T03:56:17.522Z,100129.47
2022-08-06T03:58:45.491Z,100127.84
2022-08-06T04:01:20.117Z,100137.59
2022-08-06T04:03:49.712Z,100136.06
2022-08-06T04:06:20.392Z,100148.44
2022-08-06T04:08:49.044Z,100151.25
2022-08-06T04:12:13.283Z,100149.53
2022-08-06T04:14:08.423Z,100151.25
2022-08-06T04:16:37.294Z,100140.69
2022-08-06T04:19:15.587Z,100162.28
2022-08-06T04:22:59.926Z,100156.81
2022-08-06T04:24:30.580Z,100160.19
2022-08-06T04:27:05.384Z,100164.72
2022-08-06T04:29:56.270Z,100171.63
2022-08-06T04:32:29.287Z,100170.94
2022-08-06T04:36:07.974Z,100169.69
2022-08-06T04:37:48.084Z,100169.59
2022-08-06T04:40:20.136Z,100183.22
2022-08-06T04:43:00.994Z,100180.66
2022-08-06T04:46:15.939Z,100193.69
2022-08-06T04:48:16.868Z,100198.78
2022-08-06T04:50:47.701Z,100197.00
2022-08-06T04:53:30.142Z,100199.53
2022-08-06T04:56:04.331Z,100207.47
2022-08-06T04:58:33.069Z,100209.00
2022-08-06T05:01:06.903Z,100219.72
2022-08-06T05:04:07.374Z,100210.47
2022-08-06T05:06:33.187Z,100214.38
2022-08-06T05:09:05.371Z,100217.75
2022-08-06T05:11:57.640Z,100222.59
2022-08-06T05:14:33.033Z,100216.94
2022-08-06T05:17:03.090Z,100211.47
2022-08-06T05:19:39.521Z,100203.53
2022-08-06T05:22:12.297Z,100219.03
2022-08-06T05:25:00.618Z,100231.25
2022-08-06T05:27:54.521Z,100224.94
2022-08-06T05:30:16.132Z,100229.75
2022-08-06T05:32:50.845Z,100232.78
2022-08-06T05:35:23.384Z,100239.31
2022-08-06T05:38:07.117Z,100228.72
2022-08-06T05:40:52.684Z,100229.97
2022-08-06T05:43:20.749Z,100231.56
2022-08-06T05:45:49.128Z,100227.13
2022-08-06T05:48:29.142Z,100231.38
2022-08-06T05:51:08.101Z,100234.50
2022-08-06T05:54:02.577Z,100217.75
2022-08-06T05:56:38.512Z,100219.66
2022-08-06T05:59:37.389Z,100227.13
2022-08-06T06:02:07.169Z,100230.97
2022-08-06T06:04:34.179Z,100240.97
2022-08-06T06:07:04.696Z,100238.03
2022-08-06T06:09:57.126Z,100231.97
2022-08-06T06:12:21.377Z,100235.16
2022-08-06T06:14:58.518Z,100234.38
2022-08-06T06:17:51.072Z,100237.28
2022-08-06T06:21:04.013Z,100239.63
2022-08-06T06:23:39.846Z,100239.59
2022-08-06T06:26:33.454Z,100235.50
2022-08-06T06:30:01.957Z,100228.81
2022-08-06T06:32:31.039Z,100241.78
2022-08-06T06:35:13.407Z,100249.22
2022-08-06T06:37:51.986Z,100242.09
2022-08-06T06:40:24.550Z,100251.88
2022-08-06T06:43:17.900Z,100252.44
2022-08-06T06:46:10.033Z,100243.53
2022-08-06T06:49:02.895Z,100243.84
2022-08-06T06:51:56.527Z,100245.00
2022-08-06T06:54:35.659Z,100250.31
2022-08-06T06:57:08.975Z,100259.00
2022-08-06T07:00:04.484Z,100256.66
2022-08-06T07:02:29.419Z,100249.19
2022-08-06T07:04:59.616Z,100268.31
2022-08-06T07:07:27.825Z,100259.84
2022-08-06T07:10:00.141Z,100264.53
2022-08-06T07:12:34.111Z,100271.19
2022-08-06T07:15:02.641Z,100264.69
2022-08-06T07:17:43.831Z,100264.09
2022-08-06T07:20:17.329Z,100260.13
2022-08-06T07:24:08.128Z,100268.09
2022-08-06T07:25:39.911Z,100268.75
2022-08-06T07:28:10.933Z,100271.69
2022-08-06T07:30:41.282Z,100269.00
2022-08-06T07:33:11.404Z,100275.28
2022-08-06T07:35:42.550Z,100277.78
2022-08-06T07:38:11.340Z,100279.81
2022-08-06T07:40:52.881Z,100280.81
2022-08-06T07:43:25.336Z,100274.44
2022-08-06T07:46:02.077Z,100265.00
2022-08-06T07:48:52.534Z,100275.00
2022-08-06T07:51:34.283Z,100268.25
2022-08-06T07:54:09.340Z,100274.75
2022-08-06T07:57:01.642Z,100272.25
2022-08-06T07:59:30.498Z,100262.38
2022-08-06T08:01:58.739Z,100273.63
2022-08-06T08:04:35.153Z,100269.50
2022-08-06T08:07:07.646Z,100257.16
2022-08-06T08:10:01.926Z,100268.09
2022-08-06T08:12:34.789Z,100280.78
2022-08-06T08:15:04.102Z,100285.38
2022-08-06T08:17:35.002Z,100272.22
2022-08-06T08:20:15.494Z,100264.13
2022-08-06T08:22:48.631Z,100269.03
2022-08-06T08:25:40.435Z,100267.75
2022-08-06T08:28:11.863Z,100268.00
2022-08-06T08:30:43.427Z,100267.16
2022-08-06T08:33:11.090Z,100268.16
2022-08-06T08:35:50.054Z,100266.31
2022-08-06T08:38:29.470Z,100268.50
2022-08-06T08:40:57.251Z,100263.34
2022-08-06T08:43:33.284Z,100272.09
2022-08-06T08:46:17.294Z,100269.00
2022-08-06T08:49:01.235Z,100262.25
2022-08-06T08:51:28.168Z,100274.25
2022-08-06T08:53:58.320Z,100269.44
2022-08-06T08:57:08.501Z,100276.16
2022-08-06T08:59:57.793Z,100271.28
2022-08-06T09:02:00.648Z,100269.44
2022-08-06T09:04:28.145Z,100263.97
2022-08-06T09:06:56.391Z,100269.97
2022-08-06T09:09:30.158Z,100269.31
2022-08-06T09:12:03.142Z,100276.16
2022-08-06T09:14:34.210Z,100268.72
2022-08-06T09:17:01.973Z,100257.59
2022-08-06T09:19:37.826Z,100255.72
2022-08-06T09:22:09.171Z,100261.78
2022-08-06T09:24:39.174Z,100263.97
2022-08-06T09:27:32.575Z,100271.09
2022-08-06T09:30:03.777Z,100272.59
2022-08-06T09:32:54.914Z,100261.19
2022-08-06T09:35:44.272Z,100250.28
2022-08-06T09:38:16.346Z,100258.03
2022-08-06T09:41:03.317Z,100256.34
2022-08-06T09:43:34.396Z,100250.50
2022-08-06T09:46:48.558Z,100261.06
2022-08-06T09:49:45.764Z,100250.75
2022-08-06T09:52:17.879Z,100258.22
2022-08-06T09:54:46.404Z,100257.72
2022-08-06T09:57:13.043Z,100246.94
2022-08-06T09:59:50.046Z,100246.53
2022-08-06T10:02:24.109Z,100239.88
2022-08-06T10:05:19.237Z,100243.00
2022-08-06T10:07:46.802Z,100239.44
2022-08-06T10:10:13.744Z,100231.44
2022-08-06T10:13:12.085Z,100235.97
2022-08-06T10:15:57.622Z,100248.28
2022-08-06T10:18:55.016Z,100238.13
2022-08-06T10:21:33.330Z,100239.03
2022-08-06T10:24:08.290Z,100237.03
2022-08-06T10:26:35.213Z,100239.00
2022-08-06T10:29:05.321Z,100238.00
2022-08-06T10:31:33.791Z,100240.84
2022-08-06T10:34:29.670Z,100236.34
2022-08-06T10:37:10.648Z,100231.72
2022-08-06T10:40:09.925Z,100228.94
2022-08-06T10:42:40.157Z,100231.59
2022-08-06T10:45:12.916Z,100227.13
2022-08-06T10:48:58.494Z,100229.88
2022-08-06T10:50:44.624Z,100230.91
2022-08-06T10:54:00.076Z,100239.03
2022-08-06T10:56:08.944Z,100244.59
2022-08-06T10:58:37.357Z,100249.47
2022-08-06T11:01:09.508Z,100244.69
2022-08-06T11:04:04.178Z,100243.56
2022-08-06T11:06:57.691Z,100245.59
2022-08-06T11:10:00.235Z,100236.94
2022-08-06T11:12:56.403Z,100242.81
2022-08-06T11:15:23.657Z,100240.38
2022-08-06T11:17:52.516Z,100247.31
2022-08-06T11:20:35.000Z,100251.66
2022-08-06T11:23:26.279Z,100233.97
2022-08-06T11:26:08.832Z,100235.34
2022-08-06T11:28:35.373Z,100229.34
2022-08-06T11:31:04.847Z,100227.25
2022-08-06T11:33:34.038Z,100237.63
2022-08-06T11:36:09.737Z,100230.25
2022-08-06T11:38:50.844Z,100227.75
2022-08-06T11:41:50.862Z,100228.88
2022-08-06T11:44:17.068Z,100220.94
2022-08-06T11:46:48.532Z,100227.09
2022-08-06T11:49:43.838Z,100228.28
2022-08-06T11:52:39.577Z,100227.50
2022-08-06T11:55:12.346Z,100232.63
2022-08-06T11:57:49.419Z,100224.56
2022-08-06T12:00:22.241Z,100223.56
2022-08-06T12:02:54.422Z,100215.97
2022-08-06T12:05:23.411Z,100212.94
2022-08-06T12:08:38.838Z,100219.72
2022-08-06T12:11:23.804Z,100227.06
2022-08-06T12:13:57.605Z,100222.88
2022-08-06T12:16:39.509Z,100222.63
2022-08-06T12:19:13.518Z,100218.34
2022-08-06T12:21:46.101Z,100219.94
2022-08-06T12:24:15.906Z,100215.41
2022-08-06T12:26:43.422Z,100211.19
2022-08-06T12:29:09.958Z,100220.53
2022-08-06T12:31:44.222Z,100207.69
2022-08-06T12:34:31.465Z,100215.22
2022-08-06T12:36:59.091Z,100201.84
2022-08-06T12:39:43.319Z,100209.59
2022-08-06T12:42:53.224Z,100191.59
2022-08-06T12:45:33.049Z,100191.59
2022-08-06T12:48:05.128Z,100191.59
2022-08-06T12:50:40.785Z,100189.09
2022-08-06T12:53:11.537Z,100185.00
2022-08-06T12:55:45.010Z,100177.34
2022-08-06T12:58:41.518Z,100175.50
2022-08-06T13:01:01.800Z,100175.59
2022-08-06T13:03:30.376Z,100172.16
2022-08-06T13:06:00.344Z,100165.78
2022-08-06T13:08:28.630Z,100165.19
2022-08-06T13:10:57.635Z,100175.13
2022-08-06T13:14:14.411Z,100166.50
2022-08-06T13:16:55.080Z,100169.50
2022-08-06T13:19:32.971Z,100161.94
2022-08-06T13:22:06.431Z,100159.41
2022-08-06T13:24:34.412Z,100149.81
2022-08-06T13:27:02.855Z,100167.69
2022-08-06T13:30:35.630Z,100155.28
2022-08-06T13:32:33.127Z,100161.06
2022-08-06T13:35:05.421Z,100154.94
2022-08-06T13:38:15.220Z,100149.84
2022-08-06T13:40:51.546Z,100145.06
2022-08-06T13:43:42.673Z,100143.75
2022-08-06T13:46:20.300Z,100144.56
2022-08-06T13:48:55.275Z,100134.66
2022-08-06T13:51:27.795Z,100147.75
2022-08-06T13:53:57.553Z,100137.16
2022-08-06T13:56:29.146Z,100128.63
2022-08-06T13:58:57.606Z,100129.09
2022-08-06T14:01:24.245Z,100135.19
2022-08-06T14:04:01.933Z,100133.34
2022-08-06T14:06:28.908Z,100129.94
2022-08-06T14:08:55.345Z,100142.00
2022-08-06T14:11:25.742Z,100120.16
2022-08-06T14:13:54.821Z,100130.75
2022-08-06T14:16:21.478Z,100128.69
2022-08-06T14:19:03.469Z,100117.16
2022-08-06T14:21:34.622Z,100129.88
2022-08-06T14:24:06.707Z,100128.47
2022-08-06T14:26:33.531Z,100122.31
2022-08-06T14:30:25.678Z,100128.19
2022-08-06T14:31:53.507Z,100110.81
2022-08-06T14:34:30.028Z,100116.69
2022-08-06T14:37:03.390Z,100127.81
2022-08-06T14:39:58.270Z,100121.81
2022-08-06T14:42:16.791Z,100123.13
2022-08-06T14:44:45.951Z,100124.09
2022-08-06T14:47:19.941Z,100130.31
2022-08-06T14:49:59.146Z,100123.00
2022-08-06T14:52:26.160Z,100120.00
2022-08-06T14:54:56.134Z,100118.41
2022-08-06T14:58:03.948Z,100113.59
2022-08-06T15:00:21.445Z,100119.91
2022-08-06T15:02:48.399Z,100120.56
2022-08-06T15:05:40.779Z,100110.47
2022-08-06T15:08:03.042Z,100113.63
2022-08-06T15:10:29.935Z,100101.53
2022-08-06T15:13:01.592Z,100104.16
2022-08-06T15:15:46.419Z,100106.91
2022-08-06T15:18:34.901Z,100105.75
2022-08-06T15:21:02.182Z,100103.88
2022-08-06T15:23:31.117Z,100098.84
2022-08-06T15:26:42.199Z,100097.84
2022-08-06T15:28:58.247Z,100085.63
2022-08-06T15:31:26.321Z,100080.72
2022-08-06T15:33:57.090Z,100093.50
2022-08-06T15:36:23.881Z,100080.75
2022-08-06T15:38:56.724Z,100081.56
2022-08-06T15:41:24.345Z,100082.25
2022-08-06T15:43:52.482Z,100086.25
2022-08-06T15:46:28.215Z,100090.59
2022-08-06T15:48:55.984Z,100092.44
2022-08-06T15:51:30.167Z,100089.50
2022-08-06T15:53:58.803Z,100083.78
2022-08-06T15:56:38.672Z,100078.91
2022-08-06T15:59:15.208Z,100081.41
2022-08-06T16:01:52.512Z,100067.44
2022-08-06T16:04:35.340Z,100074.34
2022-08-06T16:07:04.561Z,100074.53
2022-08-06T16:10:00.858Z,100072.66
2022-08-06T16:12:19.980Z,100077.97
2022-08-06T16:14:57.400Z,100073.41
2022-08-06T16:17:53.258Z,100070.03
2022-08-06T16:20:20.479Z,100069.88
2022-08-06T16:22:49.128Z,100078.78
2022-08-06T16:25:15.543Z,100070.41
2022-08-06T16:27:43.102Z,100067.19
2022-08-06T16:30:10.659Z,100065.34
2022-08-06T16:32:37.505Z,100076.94
2022-08-06T16:35:04.143Z,100067.03
2022-08-06T16:37:39.803Z,100072.00
2022-08-06T16:40:09.001Z,100074.66
2022-08-06T16:42:36.880Z,100074.97
2022-08-06T16:45:09.874Z,100077.44
2022-08-06T16:48:20.808Z,100075.22
2022-08-06T16:50:26.689Z,100069.00
2022-08-06T16:54:08.229Z,100075.44
2022-08-06T16:55:42.761Z,100080.00
2022-08-06T16:58:16.866Z,100082.84
2022-08-06T17:01:00.364Z,100086.97
2022-08-06T17:03:46.271Z,100087.13
2022-08-06T17:06:17.673Z,100086.75
2022-08-06T17:08:52.804Z,100094.63
2022-08-06T17:11:46.662Z,100091.50
2022-08-06T17:14:13.214Z,100090.19
2022-08-06T17:16:40.955Z,100081.97
2022-08-06T17:21:59.559Z,100092.25
2022-08-06T17:24:33.114Z,100097.59
2022-08-06T17:29:52.666Z,100074.97
2022-08-06T17:32:32.838Z,100080.88
2022-08-06T17:35:10.561Z,100083.41
2022-08-06T17:37:43.371Z,100081.34
2022-08-06T17:43:13.111Z,100079.69
2022-08-06T17:45:52.596Z,100092.53
2022-08-06T17:48:27.553Z,100086.66
2022-08-06T17:50:57.637Z,100074.19
2022-08-06T17:53:24.272Z,100086.16
2022-08-06T17:56:11.062Z,100088.53
2022-08-06T17:58:52.914Z,100088.38
2022-08-06T18:01:44.265Z,100090.50
2022-08-06T18:04:21.282Z,100089.56
2022-08-06T18:06:49.763Z,100098.38
2022-08-06T18:10:12.111Z,100096.31
2022-08-06T18:12:04.290Z,100097.22
2022-08-06T18:14:32.526Z,100099.47
2022-08-06T18:17:00.104Z,100094.31
2022-08-06T18:19:34.257Z,100106.59
2022-08-06T18:22:12.020Z,100107.34
2022-08-06T18:24:50.729Z,100103.63
2022-08-06T18:27:55.186Z,100101.84
2022-08-06T18:30:05.184Z,100100.75
2022-08-06T18:32:32.724Z,100110.19
2022-08-06T18:35:04.395Z,100112.50
2022-08-06T18:38:01.297Z,100106.97
2022-08-06T18:40:39.392Z,100110.84
2022-08-06T18:43:06.203Z,100119.88
2022-08-06T18:45:36.692Z,100118.66
2022-08-06T18:48:05.313Z,100118.09
2022-08-06T18:50:33.275Z,100119.94
2022-08-06T18:52:59.975Z,100126.56
2022-08-06T18:55:53.998Z,100127.72
2022-08-06T18:58:16.732Z,100131.25
2022-08-06T19:00:52.726Z,100134.66
2022-08-06T19:03:19.587Z,100142.63
2022-08-06T19:05:51.472Z,100140.66
2022-08-06T19:08:29.769Z,100140.66
2022-08-06T19:10:57.211Z,100140.50
2022-08-06T19:13:24.188Z,100143.44
2022-08-06T19:16:10.638Z,100153.41
2022-08-06T19:18:37.172Z,100145.06
2022-08-06T19:21:16.738Z,100148.13
2022-08-06T19:24:02.310Z,100156.22
2022-08-06T19:26:30.306Z,100168.00
2022-08-06T19:28:57.079Z,100164.31
2022-08-06T19:31:42.713Z,100159.78
2022-08-06T19:34:11.141Z,100162.84
2022-08-06T19:36:41.575Z,100160.84
2022-08-06T19:39:53.950Z,100173.88
2022-08-06T19:42:01.264Z,100170.03
2022-08-06T19:44:35.912Z,100165.50
2022-08-06T19:47:06.141Z,100180.47
2022-08-06T19:49:42.311Z,100181.84
2022-08-06T19:52:09.294Z,100178.97
2022-08-06T19:54:37.175Z,100179.09
2022-08-06T19:57:09.316Z,100187.81
2022-08-06T20:00:52.916Z,100196.34
2022-08-06T20:02:29.101Z,100197.09
2022-08-06T20:04:56.504Z,100201.94
2022-08-06T20:07:25.682Z,100203.31
2022-08-06T20:10:00.421Z,100194.63
2022-08-06T20:12:34.764Z,100201.03
2022-08-06T20:15:06.561Z,100205.31
2022-08-06T20:17:45.992Z,100206.66
2022-08-06T20:23:14.554Z,100209.88
2022-08-06T20:26:34.125Z,100206.59
2022-08-06T20:29:09.988Z,100203.69
2022-08-06T20:31:21.865Z,100208.91
2022-08-06T20:33:58.015Z,100205.13
2022-08-06T20:36:28.176Z,100207.09
2022-08-06T20:38:54.887Z,100198.59
2022-08-06T20:41:58.884Z,100203.31
2022-08-06T20:44:08.502Z,100194.59
2022-08-06T20:49:48.210Z,100201.97
2022-08-06T20:52:17.112Z,100197.22
2022-08-06T20:54:51.480Z,100182.59
2022-08-06T20:57:19.260Z,100194.91
2022-08-06T20:59:50.623Z,100187.66
2022-08-06T21:02:25.634Z,100188.00
2022-08-06T21:05:14.080Z,100187.13
2022-08-06T21:07:56.568Z,100198.22
2022-08-06T21:10:25.034Z,100201.34
2022-08-06T21:13:01.141Z,100207.78
2022-08-06T21:15:54.574Z,100208.31
2022-08-06T21:18:21.051Z,100199.09
2022-08-06T21:20:50.939Z,100195.56
2022-08-06T21:23:21.326Z,100194.97
2022-08-06T21:25:53.338Z,100194.94
2022-08-06T21:28:25.895Z,100200.28
2022-08-06T21:30:53.331Z,100193.63
2022-08-06T21:33:20.327Z,100201.81
2022-08-06T21:35:50.442Z,100201.28
2022-08-06T21:38:24.021Z,100211.06
2022-08-06T21:40:52.084Z,100206.44
2022-08-06T21:43:21.574Z,100203.47
2022-08-06T21:45:50.309Z,100208.16
2022-08-06T21:48:31.962Z,100213.78
2022-08-06T21:50:59.709Z,100210.31
2022-08-06T21:53:52.669Z,100208.81
2022-08-06T21:56:39.421Z,100206.19
2022-08-06T21:59:01.026Z,100211.84
2022-08-06T22:02:09.748Z,100219.78
2022-08-06T22:04:39.003Z,100217.44
2022-08-06T22:07:01.116Z,100216.25
2022-08-06T22:09:38.674Z,100206.19
2022-08-06T22:12:40.368Z,100216.78
2022-08-06T22:14:58.438Z,100211.47
2022-08-06T22:17:59.578Z,100216.25
2022-08-06T22:20:21.528Z,100213.94
2022-08-06T22:22:53.115Z,100212.97
2022-08-06T22:25:20.677Z,100221.53
2022-08-06T22:27:54.550Z,100228.66
2022-08-06T22:30:24.352Z,100224.59
2022-08-06T22:32:51.284Z,100227.03
2022-08-06T22:35:17.793Z,100229.06
2022-08-06T22:38:16.871Z,100220.22
2022-08-06T22:40:41.271Z,100224.03
2022-08-06T22:43:17.225Z,100228.78
2022-08-06T22:46:00.102Z,100225.47
2022-08-06T22:48:36.593Z,100230.13
2022-08-06T22:51:10.613Z,100223.75
2022-08-06T22:54:30.404Z,100228.50
2022-08-06T22:56:28.808Z,100223.09
2022-08-06T22:59:18.658Z,100221.78
2022-08-06T23:02:03.700Z,100222.84
2022-08-06T23:04:30.365Z,100223.13
2022-08-06T23:06:57.111Z,100218.25
2022-08-06T23:09:23.450Z,100217.78
2022-08-06T23:11:59.343Z,100216.94
2022-08-06T23:14:27.303Z,100208.25
2022-08-06T23:16:58.926Z,100213.53
2022-08-06T23:19:25.938Z,100215.63
2022-08-06T23:22:04.807Z,100214.00
2022-08-06T23:24:36.029Z,100209.78
2022-08-06T23:27:07.521Z,100212.81
2022-08-06T23:30:09.530Z,100208.47
2022-08-06T23:32:31.291Z,100205.38
2022-08-06T23:34:58.963Z,100205.66
2022-08-06T23:37:26.524Z,100210.38
2022-08-06T23:39:58.497Z,100202.84
2022-08-06T23:42:42.541Z,100210.88
2022-08-06T23:45:10.029Z,100212.28
2022-08-06T23:47:52.091Z,100207.38
2022-08-06T23:50:26.241Z,100205.69
2022-08-06T23:53:06.368Z,100206.91
2022-08-06T23:55:37.490Z,100212.28
2022-08-06T23:58:22.961Z,100215.78
